sensor_id;sensor_type;location;lat;lon;timestamp;temperature;humidity
5086;DHT22;4715;51.660;7.082;2023-04-01T00:02:02;10.20;99.90
5086;DHT22;4715;51.660;7.082;2023-04-01T00:04:26;10.20;99.90
5086;DHT22;4715;51.660;7.082;2023-04-01T00:06:48;10.20;99.90
5086;DHT22;4715;51.660;7.082;2023-04-01T00:09:10;10.20;99.90
5086;DHT22;4715;51.660;7.082;2023-04-01T00:11:32;10.20;99.90
5086;DHT22;4715;51.660;7.082;2023-04-01T00:13:54;10.20;99.90
5086;DHT22;4715;51.660;7.082;2023-04-01T00:16:29;10.20;99.90
5086;DHT22;4715;51.660;7.082;2023-04-01T00:18:54;10.20;99.90
5086;DHT22;4715;51.660;7.082;2023-04-01T00:21:18;10.20;99.90
5086;DHT22;4715;51.660;7.082;2023-04-01T00:23:40;10.20;99.90
5086;DHT22;4715;51.660;7.082;2023-04-01T00:26:03;10.20;99.90
5086;DHT22;4715;51.660;7.082;2023-04-01T00:28:26;10.10;99.90
5086;DHT22;4715;51.660;7.082;2023-04-01T00:30:48;10.10;99.90
5086;DHT22;4715;51.660;7.082;2023-04-01T00:33:10;10.10;99.90
5086;DHT22;4715;51.660;7.082;2023-04-01T00:35:32;10.00;99.90
5086;DHT22;4715;51.660;7.082;2023-04-01T00:37:56;10.00;99.90
5086;DHT22;4715;51.660;7.082;2023-04-01T00:40:27;10.00;99.90
5086;DHT22;4715;51.660;7.082;2023-04-01T00:42:50;10.00;99.90
5086;DHT22;4715;51.660;7.082;2023-04-01T00:45:27;10.00;99.90
5086;DHT22;4715;51.660;7.082;2023-04-01T00:47:50;10.00;99.90
5086;DHT22;4715;51.660;7.082;2023-04-01T00:50:12;10.00;99.90
5086;DHT22;4715;51.660;7.082;2023-04-01T00:52:34;10.00;99.90
5086;DHT22;4715;51.660;7.082;2023-04-01T00:54:59;10.00;99.90
5086;DHT22;4715;51.660;7.082;2023-04-01T00:57:25;10.00;99.90
5086;DHT22;4715;51.660;7.082;2023-04-01T00:59:51;10.00;99.90
5086;DHT22;4715;51.660;7.082;2023-04-01T01:02:15;10.00;99.90
5086;DHT22;4715;51.660;7.082;2023-04-01T01:04:37;10.00;99.90
5086;DHT22;4715;51.660;7.082;2023-04-01T01:07:10;10.00;99.90
5086;DHT22;4715;51.660;7.082;2023-04-01T01:09:41;10.00;99.90
5086;DHT22;4715;51.660;7.082;2023-04-01T01:12:11;10.00;99.90
5086;DHT22;4715;51.660;7.082;2023-04-01T01:14:45;10.00;99.90
5086;DHT22;4715;51.660;7.082;2023-04-01T01:17:14;10.00;99.90
5086;DHT22;4715;51.660;7.082;2023-04-01T01:22:47;10.00;99.90
5086;DHT22;4715;51.660;7.082;2023-04-01T01:25:25;10.00;99.90
5086;DHT22;4715;51.660;7.082;2023-04-01T01:27:58;10.00;99.90
5086;DHT22;4715;51.660;7.082;2023-04-01T01:30:35;10.00;99.90
5086;DHT22;4715;51.660;7.082;2023-04-01T01:35:54;10.00;99.90
5086;DHT22;4715;51.660;7.082;2023-04-01T01:38:18;10.00;99.90
5086;DHT22;4715;51.660;7.082;2023-04-01T01:40:42;9.90;99.90
5086;DHT22;4715;51.660;7.082;2023-04-01T01:43:09;9.90;99.90
5086;DHT22;4715;51.660;7.082;2023-04-01T01:45:35;9.90;99.90
5086;DHT22;4715;51.660;7.082;2023-04-01T01:47:59;9.90;99.90
5086;DHT22;4715;51.660;7.082;2023-04-01T01:50:23;9.90;99.90
5086;DHT22;4715;51.660;7.082;2023-04-01T01:52:46;9.90;99.90
5086;DHT22;4715;51.660;7.082;2023-04-01T01:55:25;9.90;99.90
5086;DHT22;4715;51.660;7.082;2023-04-01T01:57:47;9.90;99.90
5086;DHT22;4715;51.660;7.082;2023-04-01T02:00:12;9.90;99.90
5086;DHT22;4715;51.660;7.082;2023-04-01T02:02:34;9.90;99.90
5086;DHT22;4715;51.660;7.082;2023-04-01T02:04:56;9.80;99.90
5086;DHT22;4715;51.660;7.082;2023-04-01T02:07:20;9.80;99.90
5086;DHT22;4715;51.660;7.082;2023-04-01T02:09:44;9.80;99.90
5086;DHT22;4715;51.660;7.082;2023-04-01T02:12:08;9.80;99.90
5086;DHT22;4715;51.660;7.082;2023-04-01T02:14:36;9.70;99.90
5086;DHT22;4715;51.660;7.082;2023-04-01T02:17:05;9.70;99.90
5086;DHT22;4715;51.660;7.082;2023-04-01T02:19:32;9.70;99.90
5086;DHT22;4715;51.660;7.082;2023-04-01T02:21:58;9.70;99.90
5086;DHT22;4715;51.660;7.082;2023-04-01T02:24:22;9.70;99.90
5086;DHT22;4715;51.660;7.082;2023-04-01T02:26:48;9.70;99.90
5086;DHT22;4715;51.660;7.082;2023-04-01T02:29:11;9.70;99.90
5086;DHT22;4715;51.660;7.082;2023-04-01T02:31:34;9.70;99.90
5086;DHT22;4715;51.660;7.082;2023-04-01T02:33:56;9.70;99.90
5086;DHT22;4715;51.660;7.082;2023-04-01T02:36:18;9.70;99.90
5086;DHT22;4715;51.660;7.082;2023-04-01T02:38:41;9.70;99.90
5086;DHT22;4715;51.660;7.082;2023-04-01T02:41:03;9.70;99.90
5086;DHT22;4715;51.660;7.082;2023-04-01T02:43:28;9.70;99.90
5086;DHT22;4715;51.660;7.082;2023-04-01T02:45:50;9.70;99.90
5086;DHT22;4715;51.660;7.082;2023-04-01T02:48:12;9.70;99.90
5086;DHT22;4715;51.660;7.082;2023-04-01T02:50:34;9.70;99.90
5086;DHT22;4715;51.660;7.082;2023-04-01T02:52:56;9.70;99.90
5086;DHT22;4715;51.660;7.082;2023-04-01T02:55:18;9.70;99.90
5086;DHT22;4715;51.660;7.082;2023-04-01T02:57:40;9.70;99.90
5086;DHT22;4715;51.660;7.082;2023-04-01T03:00:04;9.70;99.90
5086;DHT22;4715;51.660;7.082;2023-04-01T03:02:31;9.70;99.90
5086;DHT22;4715;51.660;7.082;2023-04-01T03:04:53;9.70;99.90
5086;DHT22;4715;51.660;7.082;2023-04-01T03:07:15;9.80;99.90
5086;DHT22;4715;51.660;7.082;2023-04-01T03:09:36;9.80;99.90
5086;DHT22;4715;51.660;7.082;2023-04-01T03:11:58;9.80;99.90
5086;DHT22;4715;51.660;7.082;2023-04-01T03:14:20;9.80;99.90
5086;DHT22;4715;51.660;7.082;2023-04-01T03:16:47;9.80;99.90
5086;DHT22;4715;51.660;7.082;2023-04-01T03:19:12;9.80;99.90
5086;DHT22;4715;51.660;7.082;2023-04-01T03:21:36;9.70;99.90
5086;DHT22;4715;51.660;7.082;2023-04-01T03:23:58;9.70;99.90
5086;DHT22;4715;51.660;7.082;2023-04-01T03:26:20;9.70;99.90
5086;DHT22;4715;51.660;7.082;2023-04-01T03:28:44;9.70;99.90
5086;DHT22;4715;51.660;7.082;2023-04-01T03:31:09;9.70;99.90
5086;DHT22;4715;51.660;7.082;2023-04-01T03:33:40;9.70;99.90
5086;DHT22;4715;51.660;7.082;2023-04-01T03:36:05;9.70;99.90
5086;DHT22;4715;51.660;7.082;2023-04-01T03:38:27;9.80;99.90
5086;DHT22;4715;51.660;7.082;2023-04-01T03:40:50;9.80;99.90
5086;DHT22;4715;51.660;7.082;2023-04-01T03:43:13;9.80;99.90
5086;DHT22;4715;51.660;7.082;2023-04-01T03:45:43;9.80;99.90
5086;DHT22;4715;51.660;7.082;2023-04-01T03:48:07;9.80;99.90
5086;DHT22;4715;51.660;7.082;2023-04-01T03:50:30;9.80;99.90
5086;DHT22;4715;51.660;7.082;2023-04-01T03:52:55;9.80;99.90
5086;DHT22;4715;51.660;7.082;2023-04-01T03:55:17;9.80;99.90
5086;DHT22;4715;51.660;7.082;2023-04-01T03:57:54;9.80;99.90
5086;DHT22;4715;51.660;7.082;2023-04-01T04:00:16;9.80;99.90
5086;DHT22;4715;51.660;7.082;2023-04-01T04:02:39;9.70;99.90
5086;DHT22;4715;51.660;7.082;2023-04-01T04:05:01;9.70;99.90
5086;DHT22;4715;51.660;7.082;2023-04-01T04:07:25;9.70;99.90
5086;DHT22;4715;51.660;7.082;2023-04-01T04:09:47;9.70;99.90
5086;DHT22;4715;51.660;7.082;2023-04-01T04:12:09;9.70;99.90
5086;DHT22;4715;51.660;7.082;2023-04-01T04:14:33;9.70;99.90
5086;DHT22;4715;51.660;7.082;2023-04-01T04:16:55;9.70;99.90
5086;DHT22;4715;51.660;7.082;2023-04-01T04:19:17;9.70;99.90
5086;DHT22;4715;51.660;7.082;2023-04-01T04:21:40;9.70;99.90
5086;DHT22;4715;51.660;7.082;2023-04-01T04:24:04;9.70;99.90
5086;DHT22;4715;51.660;7.082;2023-04-01T04:26:28;9.70;99.90
5086;DHT22;4715;51.660;7.082;2023-04-01T04:28:50;9.70;99.90
5086;DHT22;4715;51.660;7.082;2023-04-01T04:31:12;9.70;99.90
5086;DHT22;4715;51.660;7.082;2023-04-01T04:33:39;9.70;99.90
5086;DHT22;4715;51.660;7.082;2023-04-01T04:36:05;9.70;99.90
5086;DHT22;4715;51.660;7.082;2023-04-01T04:38:27;9.70;99.90
5086;DHT22;4715;51.660;7.082;2023-04-01T04:40:52;9.70;99.90
5086;DHT22;4715;51.660;7.082;2023-04-01T04:43:18;9.70;99.90
5086;DHT22;4715;51.660;7.082;2023-04-01T04:45:42;9.70;99.90
5086;DHT22;4715;51.660;7.082;2023-04-01T04:48:07;9.80;99.90
5086;DHT22;4715;51.660;7.082;2023-04-01T04:50:31;9.80;99.90
5086;DHT22;4715;51.660;7.082;2023-04-01T04:52:53;9.70;99.90
5086;DHT22;4715;51.660;7.082;2023-04-01T04:55:16;9.80;99.90
5086;DHT22;4715;51.660;7.082;2023-04-01T04:57:42;9.80;99.90
5086;DHT22;4715;51.660;7.082;2023-04-01T05:00:06;9.80;99.90
5086;DHT22;4715;51.660;7.082;2023-04-01T05:02:32;9.80;99.90
5086;DHT22;4715;51.660;7.082;2023-04-01T05:04:54;9.80;99.90
5086;DHT22;4715;51.660;7.082;2023-04-01T05:07:17;9.80;99.90
5086;DHT22;4715;51.660;7.082;2023-04-01T05:09:39;9.80;99.90
5086;DHT22;4715;51.660;7.082;2023-04-01T05:12:01;9.80;99.90
5086;DHT22;4715;51.660;7.082;2023-04-01T05:14:25;9.80;99.90
5086;DHT22;4715;51.660;7.082;2023-04-01T05:16:47;9.80;99.90
5086;DHT22;4715;51.660;7.082;2023-04-01T05:19:09;9.80;99.90
5086;DHT22;4715;51.660;7.082;2023-04-01T05:21:33;9.80;99.90
5086;DHT22;4715;51.660;7.082;2023-04-01T05:23:56;9.90;99.90
5086;DHT22;4715;51.660;7.082;2023-04-01T05:26:20;9.80;99.90
5086;DHT22;4715;51.660;7.082;2023-04-01T05:28:43;9.80;99.90
5086;DHT22;4715;51.660;7.082;2023-04-01T05:31:07;9.80;99.90
5086;DHT22;4715;51.660;7.082;2023-04-01T05:33:33;9.80;99.90
5086;DHT22;4715;51.660;7.082;2023-04-01T05:36:05;9.80;99.90
5086;DHT22;4715;51.660;7.082;2023-04-01T05:38:28;9.90;99.90
5086;DHT22;4715;51.660;7.082;2023-04-01T05:40:50;9.90;99.90
5086;DHT22;4715;51.660;7.082;2023-04-01T05:43:12;9.90;99.90
5086;DHT22;4715;51.660;7.082;2023-04-01T05:45:34;9.90;99.90
5086;DHT22;4715;51.660;7.082;2023-04-01T05:47:59;9.80;99.90
5086;DHT22;4715;51.660;7.082;2023-04-01T05:50:20;9.90;99.90
5086;DHT22;4715;51.660;7.082;2023-04-01T05:52:42;9.90;99.90
5086;DHT22;4715;51.660;7.082;2023-04-01T05:55:05;9.90;99.90
5086;DHT22;4715;51.660;7.082;2023-04-01T05:57:27;9.90;99.90
5086;DHT22;4715;51.660;7.082;2023-04-01T05:59:50;9.90;99.90
5086;DHT22;4715;51.660;7.082;2023-04-01T06:02:16;9.90;99.90
5086;DHT22;4715;51.660;7.082;2023-04-01T06:04:45;9.90;99.90
5086;DHT22;4715;51.660;7.082;2023-04-01T06:07:12;9.90;99.90
5086;DHT22;4715;51.660;7.082;2023-04-01T06:09:34;9.90;99.90
5086;DHT22;4715;51.660;7.082;2023-04-01T06:12:25;9.90;99.90
5086;DHT22;4715;51.660;7.082;2023-04-01T06:15:01;9.90;99.90
5086;DHT22;4715;51.660;7.082;2023-04-01T06:17:31;9.90;99.90
5086;DHT22;4715;51.660;7.082;2023-04-01T06:20:09;9.80;99.90
5086;DHT22;4715;51.660;7.082;2023-04-01T06:22:49;9.90;99.90
5086;DHT22;4715;51.660;7.082;2023-04-01T06:25:32;9.80;99.90
5086;DHT22;4715;51.660;7.082;2023-04-01T06:30:53;9.80;99.90
5086;DHT22;4715;51.660;7.082;2023-04-01T06:33:29;9.80;99.90
5086;DHT22;4715;51.660;7.082;2023-04-01T06:41:59;9.80;99.90
5086;DHT22;4715;51.660;7.082;2023-04-01T06:44:34;9.80;99.90
5086;DHT22;4715;51.660;7.082;2023-04-01T06:47:04;9.80;99.90
5086;DHT22;4715;51.660;7.082;2023-04-01T06:49:46;9.90;99.90
5086;DHT22;4715;51.660;7.082;2023-04-01T06:52:22;9.90;99.90
5086;DHT22;4715;51.660;7.082;2023-04-01T06:54:51;9.90;99.90
5086;DHT22;4715;51.660;7.082;2023-04-01T06:57:21;9.90;99.90
5086;DHT22;4715;51.660;7.082;2023-04-01T06:59:45;9.90;99.90
5086;DHT22;4715;51.660;7.082;2023-04-01T07:02:19;9.90;99.90
5086;DHT22;4715;51.660;7.082;2023-04-01T07:04:46;9.90;99.90
5086;DHT22;4715;51.660;7.082;2023-04-01T07:07:17;9.90;99.90
5086;DHT22;4715;51.660;7.082;2023-04-01T07:09:45;9.90;99.90
5086;DHT22;4715;51.660;7.082;2023-04-01T07:12:16;9.90;99.90
5086;DHT22;4715;51.660;7.082;2023-04-01T07:14:41;9.90;99.90
5086;DHT22;4715;51.660;7.082;2023-04-01T07:17:07;9.90;99.90
5086;DHT22;4715;51.660;7.082;2023-04-01T07:19:33;9.90;99.90
5086;DHT22;4715;51.660;7.082;2023-04-01T07:22:02;9.90;99.90
5086;DHT22;4715;51.660;7.082;2023-04-01T07:24:31;9.90;99.90
5086;DHT22;4715;51.660;7.082;2023-04-01T07:26:55;9.90;99.90
5086;DHT22;4715;51.660;7.082;2023-04-01T07:29:18;9.90;99.90
5086;DHT22;4715;51.660;7.082;2023-04-01T07:31:51;9.90;99.90
5086;DHT22;4715;51.660;7.082;2023-04-01T07:34:21;10.00;99.90
5086;DHT22;4715;51.660;7.082;2023-04-01T07:36:47;10.00;99.90
5086;DHT22;4715;51.660;7.082;2023-04-01T07:39:21;10.00;99.90
5086;DHT22;4715;51.660;7.082;2023-04-01T07:41:56;10.10;99.90
5086;DHT22;4715;51.660;7.082;2023-04-01T07:44:25;10.10;99.90
5086;DHT22;4715;51.660;7.082;2023-04-01T07:46:56;10.10;99.90
5086;DHT22;4715;51.660;7.082;2023-04-01T07:49:24;10.10;99.90
5086;DHT22;4715;51.660;7.082;2023-04-01T07:51:55;10.10;99.90
5086;DHT22;4715;51.660;7.082;2023-04-01T07:54:24;10.10;99.90
5086;DHT22;4715;51.660;7.082;2023-04-01T07:56:54;10.10;99.90
5086;DHT22;4715;51.660;7.082;2023-04-01T07:59:24;10.10;99.90
5086;DHT22;4715;51.660;7.082;2023-04-01T08:01:52;10.10;99.90
5086;DHT22;4715;51.660;7.082;2023-04-01T08:04:27;10.10;99.90
5086;DHT22;4715;51.660;7.082;2023-04-01T08:06:59;10.00;99.90
5086;DHT22;4715;51.660;7.082;2023-04-01T08:09:31;10.00;99.90
5086;DHT22;4715;51.660;7.082;2023-04-01T08:12:05;10.00;99.90
5086;DHT22;4715;51.660;7.082;2023-04-01T08:14:36;9.90;99.90
5086;DHT22;4715;51.660;7.082;2023-04-01T08:17:05;10.00;99.90
5086;DHT22;4715;51.660;7.082;2023-04-01T08:19:38;10.00;99.90
5086;DHT22;4715;51.660;7.082;2023-04-01T08:22:07;9.90;99.90
5086;DHT22;4715;51.660;7.082;2023-04-01T08:24:36;10.00;99.90
5086;DHT22;4715;51.660;7.082;2023-04-01T08:27:12;10.00;99.90
5086;DHT22;4715;51.660;7.082;2023-04-01T08:29:42;10.00;99.90
5086;DHT22;4715;51.660;7.082;2023-04-01T08:32:12;9.90;99.90
5086;DHT22;4715;51.660;7.082;2023-04-01T08:34:37;9.90;99.90
5086;DHT22;4715;51.660;7.082;2023-04-01T08:37:02;9.90;99.90
5086;DHT22;4715;51.660;7.082;2023-04-01T08:39:30;9.90;99.90
5086;DHT22;4715;51.660;7.082;2023-04-01T08:42:15;9.90;99.90
5086;DHT22;4715;51.660;7.082;2023-04-01T08:48:18;9.90;99.90
5086;DHT22;4715;51.660;7.082;2023-04-01T08:51:04;9.90;99.90
5086;DHT22;4715;51.660;7.082;2023-04-01T08:53:42;9.90;99.90
5086;DHT22;4715;51.660;7.082;2023-04-01T08:56:16;9.90;99.90
5086;DHT22;4715;51.660;7.082;2023-04-01T08:58:59;10.00;99.90
5086;DHT22;4715;51.660;7.082;2023-04-01T09:04:28;10.00;99.90
5086;DHT22;4715;51.660;7.082;2023-04-01T09:07:20;10.00;99.90
5086;DHT22;4715;51.660;7.082;2023-04-01T09:10:10;10.00;99.90
5086;DHT22;4715;51.660;7.082;2023-04-01T09:12:59;10.00;99.90
5086;DHT22;4715;51.660;7.082;2023-04-01T09:15:54;10.10;99.90
5086;DHT22;4715;51.660;7.082;2023-04-01T09:18:38;10.10;99.90
5086;DHT22;4715;51.660;7.082;2023-04-01T09:21:34;10.10;99.90
5086;DHT22;4715;51.660;7.082;2023-04-01T09:27:06;10.20;99.90
5086;DHT22;4715;51.660;7.082;2023-04-01T09:29:47;10.20;99.90
5086;DHT22;4715;51.660;7.082;2023-04-01T09:32:47;10.20;99.90
5086;DHT22;4715;51.660;7.082;2023-04-01T09:35:22;10.20;99.90
5086;DHT22;4715;51.660;7.082;2023-04-01T09:37:53;10.30;99.90
5086;DHT22;4715;51.660;7.082;2023-04-01T09:40:17;10.30;99.90
5086;DHT22;4715;51.660;7.082;2023-04-01T09:42:45;10.30;99.90
5086;DHT22;4715;51.660;7.082;2023-04-01T09:45:29;10.40;99.90
5086;DHT22;4715;51.660;7.082;2023-04-01T09:48:04;10.40;99.90
5086;DHT22;4715;51.660;7.082;2023-04-01T09:50:35;10.40;99.90
5086;DHT22;4715;51.660;7.082;2023-04-01T09:53:11;10.40;99.90
5086;DHT22;4715;51.660;7.082;2023-04-01T09:55:52;10.40;99.90
5086;DHT22;4715;51.660;7.082;2023-04-01T09:58:54;10.40;99.90
5086;DHT22;4715;51.660;7.082;2023-04-01T10:01:39;10.50;99.90
5086;DHT22;4715;51.660;7.082;2023-04-01T10:04:30;10.50;99.90
5086;DHT22;4715;51.660;7.082;2023-04-01T10:07:28;10.40;99.90
5086;DHT22;4715;51.660;7.082;2023-04-01T10:10:29;10.40;99.90
5086;DHT22;4715;51.660;7.082;2023-04-01T10:13:28;10.40;99.90
5086;DHT22;4715;51.660;7.082;2023-04-01T10:16:26;10.40;99.90
5086;DHT22;4715;51.660;7.082;2023-04-01T10:22:30;10.50;99.90
5086;DHT22;4715;51.660;7.082;2023-04-01T10:28:38;10.60;99.90
5086;DHT22;4715;51.660;7.082;2023-04-01T10:36:57;10.60;99.90
5086;DHT22;4715;51.660;7.082;2023-04-01T10:39:39;10.60;99.90
5086;DHT22;4715;51.660;7.082;2023-04-01T10:42:38;10.60;99.90
5086;DHT22;4715;51.660;7.082;2023-04-01T10:45:29;10.60;99.90
5086;DHT22;4715;51.660;7.082;2023-04-01T10:48:12;10.70;99.90
5086;DHT22;4715;51.660;7.082;2023-04-01T10:51:01;10.70;99.90
5086;DHT22;4715;51.660;7.082;2023-04-01T10:53:37;10.80;99.90
5086;DHT22;4715;51.660;7.082;2023-04-01T11:08:46;10.80;99.90
5086;DHT22;4715;51.660;7.082;2023-04-01T11:11:43;10.80;99.90
5086;DHT22;4715;51.660;7.082;2023-04-01T11:14:53;10.80;99.90
5086;DHT22;4715;51.660;7.082;2023-04-01T11:17:54;10.80;99.90
5086;DHT22;4715;51.660;7.082;2023-04-01T11:23:43;10.80;99.90
5086;DHT22;4715;51.660;7.082;2023-04-01T11:26:15;10.80;99.90
5086;DHT22;4715;51.660;7.082;2023-04-01T11:29:09;10.80;99.90
5086;DHT22;4715;51.660;7.082;2023-04-01T11:31:43;10.80;99.90
5086;DHT22;4715;51.660;7.082;2023-04-01T11:34:24;10.90;99.90
5086;DHT22;4715;51.660;7.082;2023-04-01T11:36:59;10.90;99.90
5086;DHT22;4715;51.660;7.082;2023-04-01T11:39:35;10.90;99.90
5086;DHT22;4715;51.660;7.082;2023-04-01T11:42:09;10.80;99.90
5086;DHT22;4715;51.660;7.082;2023-04-01T11:44:37;10.80;99.90
5086;DHT22;4715;51.660;7.082;2023-04-01T11:50:14;10.80;99.90
5086;DHT22;4715;51.660;7.082;2023-04-01T11:52:53;10.70;99.90
5086;DHT22;4715;51.660;7.082;2023-04-01T11:55:51;10.70;99.90
5086;DHT22;4715;51.660;7.082;2023-04-01T12:01:27;10.70;99.90
5086;DHT22;4715;51.660;7.082;2023-04-01T12:04:05;10.70;99.90
5086;DHT22;4715;51.660;7.082;2023-04-01T12:06:38;10.70;99.90
5086;DHT22;4715;51.660;7.082;2023-04-01T12:09:14;10.80;99.90
5086;DHT22;4715;51.660;7.082;2023-04-01T12:11:44;10.80;99.90
5086;DHT22;4715;51.660;7.082;2023-04-01T12:14:16;10.80;99.90
5086;DHT22;4715;51.660;7.082;2023-04-01T12:16:55;10.90;99.90
5086;DHT22;4715;51.660;7.082;2023-04-01T12:19:32;10.90;99.90
5086;DHT22;4715;51.660;7.082;2023-04-01T12:22:09;10.90;99.90
5086;DHT22;4715;51.660;7.082;2023-04-01T12:25:00;10.90;99.90
5086;DHT22;4715;51.660;7.082;2023-04-01T12:27:53;11.00;99.90
5086;DHT22;4715;51.660;7.082;2023-04-01T12:30:42;11.00;99.90
5086;DHT22;4715;51.660;7.082;2023-04-01T12:36:23;11.00;99.90
5086;DHT22;4715;51.660;7.082;2023-04-01T12:39:03;11.00;99.90
5086;DHT22;4715;51.660;7.082;2023-04-01T12:41:39;11.00;99.90
5086;DHT22;4715;51.660;7.082;2023-04-01T12:44:46;11.00;99.90
5086;DHT22;4715;51.660;7.082;2023-04-01T12:47:35;10.90;99.90
5086;DHT22;4715;51.660;7.082;2023-04-01T12:52:59;10.80;99.90
5086;DHT22;4715;51.660;7.082;2023-04-01T12:55:42;10.80;99.90
5086;DHT22;4715;51.660;7.082;2023-04-01T13:01:23;10.80;99.90
5086;DHT22;4715;51.660;7.082;2023-04-01T13:04:32;10.70;99.90
5086;DHT22;4715;51.660;7.082;2023-04-01T13:07:22;10.80;99.90
5086;DHT22;4715;51.660;7.082;2023-04-01T13:09:50;10.80;99.90
5086;DHT22;4715;51.660;7.082;2023-04-01T13:12:35;10.80;99.90
5086;DHT22;4715;51.660;7.082;2023-04-01T13:15:11;10.80;99.90
5086;DHT22;4715;51.660;7.082;2023-04-01T13:17:46;10.80;99.90
5086;DHT22;4715;51.660;7.082;2023-04-01T13:20:20;10.80;99.90
5086;DHT22;4715;51.660;7.082;2023-04-01T13:22:56;10.80;99.90
5086;DHT22;4715;51.660;7.082;2023-04-01T13:25:25;10.80;99.90
5086;DHT22;4715;51.660;7.082;2023-04-01T13:27:58;10.80;99.90
5086;DHT22;4715;51.660;7.082;2023-04-01T13:30:33;10.80;99.90
5086;DHT22;4715;51.660;7.082;2023-04-01T13:33:07;10.80;99.90
5086;DHT22;4715;51.660;7.082;2023-04-01T13:35:41;10.80;99.90
5086;DHT22;4715;51.660;7.082;2023-04-01T13:38:16;10.80;99.90
5086;DHT22;4715;51.660;7.082;2023-04-01T13:40:49;10.80;99.90
5086;DHT22;4715;51.660;7.082;2023-04-01T13:43:18;10.70;99.90
5086;DHT22;4715;51.660;7.082;2023-04-01T13:46:02;10.70;99.90
5086;DHT22;4715;51.660;7.082;2023-04-01T13:48:41;10.80;99.90
5086;DHT22;4715;51.660;7.082;2023-04-01T13:51:25;10.80;99.90
5086;DHT22;4715;51.660;7.082;2023-04-01T13:54:15;10.70;99.90
5086;DHT22;4715;51.660;7.082;2023-04-01T13:56:56;10.80;99.90
5086;DHT22;4715;51.660;7.082;2023-04-01T14:02:51;10.80;99.90
5086;DHT22;4715;51.660;7.082;2023-04-01T14:05:35;10.90;99.90
5086;DHT22;4715;51.660;7.082;2023-04-01T14:08:06;10.90;99.90
5086;DHT22;4715;51.660;7.082;2023-04-01T14:10:36;10.90;99.90
5086;DHT22;4715;51.660;7.082;2023-04-01T14:13:09;10.90;99.90
5086;DHT22;4715;51.660;7.082;2023-04-01T14:15:48;10.90;99.90
5086;DHT22;4715;51.660;7.082;2023-04-01T14:18:24;11.00;99.90
5086;DHT22;4715;51.660;7.082;2023-04-01T14:20:54;11.00;99.90
5086;DHT22;4715;51.660;7.082;2023-04-01T14:23:35;11.00;99.90
5086;DHT22;4715;51.660;7.082;2023-04-01T14:26:18;11.10;99.90
5086;DHT22;4715;51.660;7.082;2023-04-01T14:28:51;11.00;99.90
5086;DHT22;4715;51.660;7.082;2023-04-01T14:31:48;11.00;99.90
5086;DHT22;4715;51.660;7.082;2023-04-01T14:34:22;11.10;99.90
5086;DHT22;4715;51.660;7.082;2023-04-01T14:37:03;11.10;99.90
5086;DHT22;4715;51.660;7.082;2023-04-01T14:48:15;11.10;99.90
5086;DHT22;4715;51.660;7.082;2023-04-01T14:50:44;11.10;99.90
5086;DHT22;4715;51.660;7.082;2023-04-01T14:53:26;11.10;99.90
5086;DHT22;4715;51.660;7.082;2023-04-01T14:55:51;11.10;99.90
5086;DHT22;4715;51.660;7.082;2023-04-01T14:58:14;11.10;99.90
5086;DHT22;4715;51.660;7.082;2023-04-01T15:00:53;11.10;99.90
5086;DHT22;4715;51.660;7.082;2023-04-01T15:03:22;11.10;99.90
5086;DHT22;4715;51.660;7.082;2023-04-01T15:05:51;11.10;99.90
5086;DHT22;4715;51.660;7.082;2023-04-01T15:08:21;11.00;99.90
5086;DHT22;4715;51.660;7.082;2023-04-01T15:11:13;11.00;99.90
5086;DHT22;4715;51.660;7.082;2023-04-01T15:16:49;11.10;99.90
5086;DHT22;4715;51.660;7.082;2023-04-01T15:19:23;11.00;99.90
5086;DHT22;4715;51.660;7.082;2023-04-01T15:22:02;11.10;99.90
5086;DHT22;4715;51.660;7.082;2023-04-01T15:24:40;11.10;99.90
5086;DHT22;4715;51.660;7.082;2023-04-01T15:27:25;11.10;99.90
5086;DHT22;4715;51.660;7.082;2023-04-01T15:30:17;11.10;99.90
5086;DHT22;4715;51.660;7.082;2023-04-01T15:32:49;11.10;99.90
5086;DHT22;4715;51.660;7.082;2023-04-01T15:35:21;11.10;99.90
5086;DHT22;4715;51.660;7.082;2023-04-01T15:37:51;11.10;99.90
5086;DHT22;4715;51.660;7.082;2023-04-01T15:40:22;11.10;99.90
5086;DHT22;4715;51.660;7.082;2023-04-01T15:42:56;11.20;99.90
5086;DHT22;4715;51.660;7.082;2023-04-01T15:45:46;11.20;99.90
5086;DHT22;4715;51.660;7.082;2023-04-01T15:48:31;11.20;99.90
5086;DHT22;4715;51.660;7.082;2023-04-01T15:51:02;11.20;99.90
5086;DHT22;4715;51.660;7.082;2023-04-01T15:54:01;11.20;99.90
5086;DHT22;4715;51.660;7.082;2023-04-01T15:56:36;11.20;99.90
5086;DHT22;4715;51.660;7.082;2023-04-01T15:59:16;11.10;99.90
5086;DHT22;4715;51.660;7.082;2023-04-01T16:01:46;11.10;99.90
5086;DHT22;4715;51.660;7.082;2023-04-01T16:04:39;11.10;99.90
5086;DHT22;4715;51.660;7.082;2023-04-01T16:07:10;11.10;99.90
5086;DHT22;4715;51.660;7.082;2023-04-01T16:09:58;11.10;99.90
5086;DHT22;4715;51.660;7.082;2023-04-01T16:12:33;11.20;99.90
5086;DHT22;4715;51.660;7.082;2023-04-01T16:15:04;11.20;99.90
5086;DHT22;4715;51.660;7.082;2023-04-01T16:17:48;11.20;99.90
5086;DHT22;4715;51.660;7.082;2023-04-01T16:20:20;11.20;99.90
5086;DHT22;4715;51.660;7.082;2023-04-01T16:22:49;11.20;99.90
5086;DHT22;4715;51.660;7.082;2023-04-01T16:25:26;11.20;99.90
5086;DHT22;4715;51.660;7.082;2023-04-01T16:27:56;11.20;99.90
5086;DHT22;4715;51.660;7.082;2023-04-01T16:30:26;11.20;99.90
5086;DHT22;4715;51.660;7.082;2023-04-01T16:32:58;11.20;99.90
5086;DHT22;4715;51.660;7.082;2023-04-01T16:35:30;11.20;99.90
5086;DHT22;4715;51.660;7.082;2023-04-01T16:37:58;11.20;99.90
5086;DHT22;4715;51.660;7.082;2023-04-01T16:40:26;11.30;99.90
5086;DHT22;4715;51.660;7.082;2023-04-01T16:43:04;11.30;99.90
5086;DHT22;4715;51.660;7.082;2023-04-01T16:45:33;11.20;99.90
5086;DHT22;4715;51.660;7.082;2023-04-01T16:48:00;11.30;99.90
5086;DHT22;4715;51.660;7.082;2023-04-01T16:50:23;11.20;99.90
5086;DHT22;4715;51.660;7.082;2023-04-01T16:52:56;11.20;99.90
5086;DHT22;4715;51.660;7.082;2023-04-01T16:55:21;11.30;99.90
5086;DHT22;4715;51.660;7.082;2023-04-01T16:57:48;11.30;99.90
5086;DHT22;4715;51.660;7.082;2023-04-01T17:00:22;11.30;99.90
5086;DHT22;4715;51.660;7.082;2023-04-01T17:02:51;11.30;99.90
5086;DHT22;4715;51.660;7.082;2023-04-01T17:05:18;11.30;99.90
5086;DHT22;4715;51.660;7.082;2023-04-01T17:07:49;11.20;99.90
5086;DHT22;4715;51.660;7.082;2023-04-01T17:10:32;11.30;99.90
5086;DHT22;4715;51.660;7.082;2023-04-01T17:13:12;11.30;99.90
5086;DHT22;4715;51.660;7.082;2023-04-01T17:15:44;11.30;99.90
5086;DHT22;4715;51.660;7.082;2023-04-01T17:18:11;11.30;99.90
5086;DHT22;4715;51.660;7.082;2023-04-01T17:20:41;11.30;99.90
5086;DHT22;4715;51.660;7.082;2023-04-01T17:23:18;11.30;99.90
5086;DHT22;4715;51.660;7.082;2023-04-01T17:25:52;11.30;99.90
5086;DHT22;4715;51.660;7.082;2023-04-01T17:28:26;11.30;99.90
5086;DHT22;4715;51.660;7.082;2023-04-01T17:30:56;11.30;99.90
5086;DHT22;4715;51.660;7.082;2023-04-01T17:33:55;11.30;99.90
5086;DHT22;4715;51.660;7.082;2023-04-01T17:36:34;11.20;99.90
5086;DHT22;4715;51.660;7.082;2023-04-01T17:39:24;11.30;99.90
5086;DHT22;4715;51.660;7.082;2023-04-01T17:41:54;11.30;99.90
5086;DHT22;4715;51.660;7.082;2023-04-01T17:44:30;11.20;99.90
5086;DHT22;4715;51.660;7.082;2023-04-01T17:50:02;11.20;99.90
5086;DHT22;4715;51.660;7.082;2023-04-01T17:52:30;11.20;99.90
5086;DHT22;4715;51.660;7.082;2023-04-01T17:54:58;11.20;99.90
5086;DHT22;4715;51.660;7.082;2023-04-01T17:57:34;11.20;99.90
5086;DHT22;4715;51.660;7.082;2023-04-01T18:00:02;11.20;99.90
5086;DHT22;4715;51.660;7.082;2023-04-01T18:02:31;11.20;99.90
5086;DHT22;4715;51.660;7.082;2023-04-01T18:08:09;11.20;99.90